Time;durP1;ratioP1;P1;durP2;ratioP2;P2;SDS_P1;SDS_P2;PMS_P1;PMS_P2;Temp;Humidity;BMP_temperature;BMP_pressure;BME280_temperature;BME280_humidity;BME280_pressure;Samples;Min_cycle;Max_cycle;Signal;HPM_P1;HPM_P2
2023/06/21 00:00:31;;;;;;;7.47;6.80;;;24.70;98.70;;;;;;5008298;28;20480;-72
2023/06/21 00:02:58;;;;;;;8.03;7.23;;;24.60;98.80;;;;;;5003267;28;20461;-73
2023/06/21 00:05:24;;;;;;;7.43;6.73;;;24.60;98.70;;;;;;5007228;28;20598;-73
2023/06/21 00:07:52;;;;;;;7.23;6.53;;;24.60;98.50;;;;;;4991341;28;20535;-71
2023/06/21 00:10:20;;;;;;;7.40;6.70;;;24.40;98.70;;;;;;5003046;28;20316;-72
2023/06/21 00:12:46;;;;;;;7.67;6.93;;;24.40;98.90;;;;;;5006183;28;21121;-72
2023/06/21 00:15:12;;;;;;;7.43;6.73;;;24.50;98.90;;;;;;5021961;28;20487;-72
2023/06/21 00:17:38;;;;;;;7.13;6.53;;;24.50;98.90;;;;;;5002778;28;20982;-72
2023/06/21 00:20:04;;;;;;;7.10;6.40;;;24.50;98.90;;;;;;4987269;28;20229;-72
2023/06/21 00:22:30;;;;;;;9.10;6.20;;;24.50;98.80;;;;;;5006584;28;20229;-73
2023/06/21 00:24:57;;;;;;;8.17;7.43;;;24.40;98.70;;;;;;4996103;28;20500;-73
2023/06/21 00:27:22;;;;;;;7.07;6.33;;;24.40;98.70;;;;;;5002975;28;20460;-73
2023/06/21 00:29:48;;;;;;;9.00;5.90;;;24.40;98.70;;;;;;4990225;28;20464;-72
2023/06/21 00:32:14;;;;;;;7.30;6.50;;;24.10;98.70;;;;;;5009456;28;20715;-72
2023/06/21 00:34:39;;;;;;;8.00;6.27;;;24.10;99.10;;;;;;4985324;28;20252;-72
2023/06/21 00:37:05;;;;;;;6.50;5.87;;;24.00;98.70;;;;;;5004587;28;20225;-73
2023/06/21 00:39:31;;;;;;;8.07;6.63;;;24.00;99.10;;;;;;5006488;28;20201;-73
2023/06/21 00:41:58;;;;;;;7.90;6.27;;;24.10;99.00;;;;;;5007260;28;20256;-72
2023/06/21 00:44:23;;;;;;;10.17;7.53;;;24.10;98.90;;;;;;5008415;28;21566;-72
2023/06/21 00:46:50;;;;;;;6.90;6.30;;;24.20;98.90;;;;;;4990402;28;20228;-72
2023/06/21 00:49:16;;;;;;;7.77;7.10;;;24.10;98.70;;;;;;5006109;28;20236;-72
2023/06/21 00:51:42;;;;;;;7.17;6.57;;;24.10;98.90;;;;;;4982239;28;20473;-71
2023/06/21 00:54:16;;;;;;;6.20;5.70;;;24.10;98.70;;;;;;5005331;28;20711;-73
2023/06/21 00:56:45;;;;;;;8.30;6.13;;;24.00;98.80;;;;;;4985615;28;20446;-72
2023/06/21 00:59:11;;;;;;;6.53;5.83;;;24.10;98.70;;;;;;5005097;28;20456;-72
2023/06/21 01:01:37;;;;;;;7.50;6.80;;;23.90;98.80;;;;;;5006427;28;20526;-73
2023/06/21 01:04:09;;;;;;;6.40;5.80;;;23.90;99.00;;;;;;4983917;28;20456;-72
2023/06/21 01:06:52;;;;;;;6.73;5.30;;;23.90;98.90;;;;;;5004291;28;20499;-72
2023/06/21 01:09:45;;;;;;;5.97;5.07;;;23.80;98.70;;;;;;5001335;28;20492;-73
2023/06/21 01:12:36;;;;;;;6.50;5.90;;;23.80;98.70;;;;;;4986710;28;20467;-72
2023/06/21 01:15:15;;;;;;;6.77;5.40;;;23.80;98.90;;;;;;5006142;28;20445;-72
2023/06/21 01:17:48;;;;;;;6.53;5.93;;;23.80;98.70;;;;;;4990673;28;20997;-72
2023/06/21 01:20:23;;;;;;;6.67;6.00;;;23.60;98.50;;;;;;5000195;28;20529;-73
2023/06/21 01:22:53;;;;;;;8.37;5.40;;;23.70;98.80;;;;;;4996793;28;20476;-73
2023/06/21 01:25:37;;;;;;;7.03;6.33;;;23.70;98.70;;;;;;5002561;28;20847;-72
2023/06/21 01:28:31;;;;;;;6.60;5.83;;;23.70;98.60;;;;;;4988243;28;20444;-73
2023/06/21 01:30:59;;;;;;;8.27;5.83;;;23.70;98.60;;;;;;4999143;28;20456;-72
2023/06/21 01:33:27;;;;;;;5.53;5.03;;;23.60;98.70;;;;;;4986937;28;20444;-72
2023/06/21 01:35:54;;;;;;;6.53;5.30;;;23.70;98.80;;;;;;5006193;28;20954;-72
2023/06/21 01:38:21;;;;;;;7.97;5.53;;;23.70;98.60;;;;;;4991128;28;20475;-72
2023/06/21 01:40:46;;;;;;;10.23;6.33;;;23.70;98.60;;;;;;5006327;28;20448;-72
2023/06/21 01:43:14;;;;;;;7.63;6.17;;;23.70;98.40;;;;;;4989807;28;20848;-72
2023/06/21 01:45:40;;;;;;;6.00;5.40;;;23.70;98.60;;;;;;5011807;28;20228;-73
2023/06/21 01:48:08;;;;;;;6.30;5.80;;;23.70;98.50;;;;;;5010074;28;20511;-72
2023/06/21 01:50:35;;;;;;;12.00;5.30;;;23.70;98.40;;;;;;5012865;28;20472;-72
2023/06/21 01:53:05;;;;;;;6.43;5.87;;;23.70;98.20;;;;;;5016521;28;20535;-72
2023/06/21 01:55:32;;;;;;;7.10;6.40;;;23.70;98.40;;;;;;4992907;28;20471;-72
2023/06/21 01:57:59;;;;;;;6.47;5.87;;;23.60;98.50;;;;;;5007358;28;20479;-72
2023/06/21 02:00:26;;;;;;;7.43;6.60;;;23.60;98.50;;;;;;5008286;28;20594;-72
2023/06/21 02:02:55;;;;;;;6.37;5.77;;;23.50;98.60;;;;;;4996127;28;20468;-72
2023/06/21 02:05:22;;;;;;;7.33;6.57;;;23.60;98.70;;;;;;5018037;28;20447;-72
2023/06/21 02:07:49;;;;;;;6.57;5.93;;;23.50;98.90;;;;;;5014207;28;20851;-72
2023/06/21 02:10:18;;;;;;;6.70;5.70;;;23.40;98.90;;;;;;5012429;28;20468;-73
2023/06/21 02:12:50;;;;;;;6.07;5.47;;;23.30;99.10;;;;;;5007643;28;21004;-72
2023/06/21 02:15:17;;;;;;;7.07;5.70;;;23.30;98.90;;;;;;5021306;28;20972;-72
2023/06/21 02:17:48;;;;;;;7.07;6.33;;;23.30;99.00;;;;;;5016805;28;20464;-72
2023/06/21 02:20:15;;;;;;;5.90;5.30;;;23.30;99.00;;;;;;4999523;28;20451;-72
2023/06/21 02:22:41;;;;;;;7.10;6.40;;;23.20;99.10;;;;;;5012486;28;20476;-72
2023/06/21 02:25:14;;;;;;;6.53;5.23;;;23.10;99.20;;;;;;4985022;28;20449;-72
2023/06/21 02:27:40;;;;;;;6.50;5.37;;;23.10;99.20;;;;;;5009486;28;20461;-72
2023/06/21 02:30:10;;;;;;;5.90;5.40;;;23.10;99.10;;;;;;5003086;28;20464;-72
2023/06/21 02:32:36;;;;;;;6.80;5.67;;;23.00;99.00;;;;;;5022597;28;20220;-72
2023/06/21 02:35:02;;;;;;;7.07;5.40;;;23.00;98.90;;;;;;5009241;28;20464;-72
2023/06/21 02:37:29;;;;;;;8.10;5.77;;;23.00;99.30;;;;;;5009088;28;20221;-72
2023/06/21 02:39:58;;;;;;;6.70;6.00;;;23.00;99.10;;;;;;5008309;28;20831;-71
2023/06/21 02:42:27;;;;;;;6.87;6.17;;;22.90;99.20;;;;;;4991885;28;20225;-72
2023/06/21 02:44:53;;;;;;;9.23;6.23;;;22.90;99.30;;;;;;5009235;28;20453;-72
2023/06/21 02:47:20;;;;;;;7.10;6.40;;;22.90;99.40;;;;;;4982142;28;20836;-72
2023/06/21 02:49:45;;;;;;;7.07;6.30;;;22.90;99.40;;;;;;5009411;28;20464;-71
2023/06/21 02:52:11;;;;;;;8.30;6.30;;;22.80;99.30;;;;;;5015236;28;20229;-72
2023/06/21 02:54:37;;;;;;;7.70;6.20;;;22.70;99.80;;;;;;4991335;28;20229;-72
2023/06/21 02:57:04;;;;;;;6.67;6.00;;;22.40;99.90;;;;;;5012277;28;20467;-72
2023/06/21 02:59:31;;;;;;;6.53;5.23;;;22.50;99.90;;;;;;5017875;28;20539;-73
2023/06/21 03:01:59;;;;;;;10.47;6.40;;;22.60;99.80;;;;;;4990659;28;20559;-72
2023/06/21 03:04:26;;;;;;;6.83;5.73;;;22.60;99.90;;;;;;5004192;28;20458;-72
2023/06/21 03:06:52;;;;;;;7.00;6.30;;;22.60;99.90;;;;;;4987565;28;20518;-72
2023/06/21 03:09:19;;;;;;;9.90;6.10;;;22.70;99.80;;;;;;4989669;28;20248;-72
2023/06/21 03:11:47;;;;;;;8.33;6.80;;;22.60;99.90;;;;;;5005010;28;20940;-72
2023/06/21 03:14:12;;;;;;;7.00;5.53;;;22.60;99.90;;;;;;5002661;28;20287;-73
2023/06/21 03:16:39;;;;;;;8.40;6.13;;;22.60;99.90;;;;;;5005620;28;20977;-72
2023/06/21 03:19:05;;;;;;;7.07;6.30;;;22.60;99.90;;;;;;5005259;28;20691;-72
2023/06/21 03:21:33;;;;;;;6.67;5.73;;;22.60;99.90;;;;;;4987526;28;20472;-72
2023/06/21 03:23:58;;;;;;;7.63;6.77;;;22.60;99.90;;;;;;4986636;28;20488;-72
2023/06/21 03:26:24;;;;;;;7.20;6.50;;;22.60;99.90;;;;;;4987332;28;20547;-71
2023/06/21 03:28:50;;;;;;;8.57;6.20;;;22.60;99.90;;;;;;5005249;28;20224;-71
2023/06/21 03:31:15;;;;;;;9.00;6.00;;;22.60;99.90;;;;;;5005112;28;20236;-72
2023/06/21 03:33:41;;;;;;;6.60;5.57;;;22.50;99.90;;;;;;5005991;28;20232;-72
2023/06/21 03:36:07;;;;;;;7.13;6.37;;;22.50;99.90;;;;;;4992086;28;20228;-71
2023/06/21 03:38:33;;;;;;;7.77;6.63;;;22.50;99.90;;;;;;5007482;28;20566;-72
2023/06/21 03:40:59;;;;;;;7.70;6.57;;;22.50;99.90;;;;;;4991944;28;20506;-72
2023/06/21 03:43:27;;;;;;;10.43;6.90;;;22.50;99.90;;;;;;4992370;28;20202;-71
2023/06/21 03:45:53;;;;;;;13.23;7.03;;;22.30;99.90;;;;;;4992086;28;20459;-72
2023/06/21 03:48:19;;;;;;;7.17;6.47;;;22.30;99.90;;;;;;4992305;28;20528;-72
2023/06/21 03:50:45;;;;;;;7.20;6.60;;;22.30;99.90;;;;;;5014093;28;20221;-72
2023/06/21 03:53:11;;;;;;;7.90;7.10;;;22.20;99.90;;;;;;4994803;28;20221;-72
2023/06/21 03:55:37;;;;;;;8.73;6.90;;;22.20;99.90;;;;;;4987040;28;20476;-70
2023/06/21 03:58:05;;;;;;;8.57;6.30;;;22.40;99.90;;;;;;5020107;28;20263;-75
2023/06/21 04:00:31;;;;;;;6.60;5.90;;;22.40;99.90;;;;;;4993572;28;21018;-71
2023/06/21 04:02:56;;;;;;;8.73;6.77;;;22.50;99.90;;;;;;5012701;28;20216;-73
2023/06/21 04:05:22;;;;;;;7.07;6.37;;;22.60;99.90;;;;;;4993076;28;20226;-71
2023/06/21 04:07:48;;;;;;;7.13;6.20;;;22.60;99.90;;;;;;4994619;28;20217;-71
2023/06/21 04:10:14;;;;;;;8.00;6.90;;;22.60;99.90;;;;;;4990183;28;20240;-71
2023/06/21 04:12:40;;;;;;;7.27;6.60;;;22.60;99.90;;;;;;5007821;28;20229;-71
2023/06/21 04:15:07;;;;;;;7.93;6.50;;;22.70;99.90;;;;;;5007450;28;20527;-71
2023/06/21 04:17:36;;;;;;;6.80;6.13;;;22.70;99.90;;;;;;4999009;28;20213;-72
2023/06/21 04:20:10;;;;;;;7.50;6.13;;;22.70;99.90;;;;;;5003445;28;20459;-71
2023/06/21 04:22:42;;;;;;;7.37;6.67;;;22.70;99.90;;;;;;5016383;28;20475;-72
2023/06/21 04:25:08;;;;;;;7.00;6.30;;;22.70;99.90;;;;;;5000102;28;20483;-72
2023/06/21 04:27:34;;;;;;;7.50;6.70;;;22.70;99.90;;;;;;5006283;28;20470;-71
2023/06/21 04:30:00;;;;;;;8.40;6.63;;;22.60;99.90;;;;;;5014544;28;20921;-71
2023/06/21 04:32:32;;;;;;;9.97;7.13;;;22.60;99.90;;;;;;4989531;28;20308;-71
2023/06/21 04:35:01;;;;;;;7.83;6.73;;;22.60;99.90;;;;;;4990651;28;20312;-72
2023/06/21 04:37:28;;;;;;;8.10;6.60;;;22.60;99.90;;;;;;5008803;28;20460;-72
2023/06/21 04:39:55;;;;;;;9.40;6.70;;;22.50;99.90;;;;;;5007406;28;20460;-71
2023/06/21 04:42:20;;;;;;;7.50;6.10;;;22.50;99.90;;;;;;5013380;28;20513;-71
2023/06/21 04:44:49;;;;;;;8.83;5.97;;;22.50;99.90;;;;;;5014354;28;20464;-71
2023/06/21 04:47:16;;;;;;;8.10;6.67;;;22.60;99.90;;;;;;5010904;28;20740;-71
2023/06/21 04:49:42;;;;;;;8.50;7.00;;;22.60;99.90;;;;;;5009266;28;20535;-71
2023/06/21 04:52:09;;;;;;;7.93;6.53;;;22.60;99.90;;;;;;5011948;28;20452;-71
2023/06/21 04:54:36;;;;;;;6.93;6.23;;;22.60;99.90;;;;;;5002162;28;20980;-73
2023/06/21 04:57:06;;;;;;;8.63;6.43;;;22.60;99.90;;;;;;4987673;28;20974;-71
2023/06/21 04:59:32;;;;;;;8.27;7.23;;;22.60;99.90;;;;;;4980469;28;21004;-72
2023/06/21 05:01:58;;;;;;;7.03;6.33;;;22.50;99.90;;;;;;5004000;28;20472;-71
2023/06/21 05:04:24;;;;;;;12.70;8.03;;;22.40;99.90;;;;;;5005311;28;20264;-71
2023/06/21 05:06:49;;;;;;;9.90;7.40;;;22.20;99.90;;;;;;4988985;28;20214;-70
2023/06/21 05:09:15;;;;;;;12.37;7.03;;;22.20;99.90;;;;;;4999517;28;20818;-68
2023/06/21 05:11:42;;;;;;;9.00;7.30;;;22.20;99.90;;;;;;5004010;28;20244;-69
2023/06/21 05:14:08;;;;;;;11.07;7.30;;;22.20;99.90;;;;;;4988764;28;20684;-70
2023/06/21 05:16:33;;;;;;;7.13;6.43;;;22.30;99.90;;;;;;5004519;28;20492;-71
2023/06/21 05:18:59;;;;;;;8.50;7.47;;;22.40;99.90;;;;;;5006204;28;20221;-71
2023/06/21 05:21:25;;;;;;;8.37;7.47;;;22.40;99.90;;;;;;5007090;28;20231;-70
2023/06/21 05:23:50;;;;;;;9.07;7.47;;;22.40;99.90;;;;;;5006388;28;20241;-72
2023/06/21 05:26:16;;;;;;;10.63;7.90;;;22.50;99.90;;;;;;5004134;28;20217;-73
2023/06/21 05:28:42;;;;;;;11.07;6.60;;;22.50;99.90;;;;;;5003911;28;20272;-71
2023/06/21 05:31:08;;;;;;;8.47;7.17;;;22.50;99.90;;;;;;4988765;28;20233;-72
2023/06/21 05:33:34;;;;;;;9.93;8.30;;;22.50;99.90;;;;;;5006726;28;20224;-71
2023/06/21 05:36:00;;;;;;;7.80;7.03;;;22.60;99.90;;;;;;5005611;28;20448;-71
2023/06/21 05:38:25;;;;;;;9.67;8.67;;;22.60;99.90;;;;;;5009832;28;20726;-72
2023/06/21 05:40:51;;;;;;;10.37;8.80;;;22.60;99.90;;;;;;5002862;28;20218;-72
2023/06/21 05:43:17;;;;;;;9.73;8.73;;;22.60;99.90;;;;;;5004642;28;20209;-71
2023/06/21 05:45:42;;;;;;;8.70;7.80;;;22.70;99.90;;;;;;5004422;28;20210;-71
2023/06/21 05:48:08;;;;;;;12.37;9.43;;;22.80;99.90;;;;;;5007879;28;20224;-71
2023/06/21 05:50:33;;;;;;;11.70;8.33;;;22.80;99.90;;;;;;4990078;28;20221;-70
2023/06/21 05:53:02;;;;;;;11.33;8.63;;;22.80;99.90;;;;;;4991406;28;20280;-71
2023/06/21 05:55:27;;;;;;;9.47;8.30;;;22.70;99.90;;;;;;5007340;28;20225;-72
2023/06/21 05:57:53;;;;;;;9.07;8.17;;;22.80;99.90;;;;;;5008482;28;20478;-69
2023/06/21 06:00:19;;;;;;;13.23;7.90;;;22.70;99.90;;;;;;5004683;28;20286;-70
2023/06/21 06:02:45;;;;;;;8.50;7.60;;;22.70;99.90;;;;;;5004706;28;20370;-71
2023/06/21 06:05:11;;;;;;;9.07;8.20;;;22.70;99.90;;;;;;5005339;28;20282;-71
2023/06/21 06:07:37;;;;;;;10.57;8.70;;;22.50;99.90;;;;;;5002793;28;20220;-71
2023/06/21 06:10:04;;;;;;;11.53;8.83;;;22.40;99.90;;;;;;5004417;28;20608;-71
2023/06/21 06:12:30;;;;;;;9.73;8.73;;;22.30;99.90;;;;;;4985725;28;20921;-71
2023/06/21 06:14:56;;;;;;;9.03;8.23;;;22.10;99.90;;;;;;4989395;28;20469;-72
2023/06/21 06:17:21;;;;;;;10.80;8.43;;;22.00;99.90;;;;;;5007673;28;20479;-71
2023/06/21 06:19:47;;;;;;;9.60;8.10;;;22.10;99.90;;;;;;5003384;28;20221;-72
2023/06/21 06:22:13;;;;;;;9.10;8.20;;;22.10;99.90;;;;;;4988986;28;20225;-72
2023/06/21 06:24:38;;;;;;;9.87;8.57;;;22.20;99.90;;;;;;5006043;28;20228;-71
2023/06/21 06:27:05;;;;;;;10.07;8.60;;;22.30;99.90;;;;;;4985149;28;20224;-71
2023/06/21 06:29:30;;;;;;;9.27;8.13;;;22.00;99.90;;;;;;5000878;28;20234;-71
2023/06/21 06:31:56;;;;;;;8.73;7.33;;;22.00;99.90;;;;;;5003609;28;20486;-71
2023/06/21 06:34:22;;;;;;;7.67;6.87;;;22.20;99.90;;;;;;5005808;28;20282;-71
2023/06/21 06:36:48;;;;;;;10.70;7.90;;;22.30;99.90;;;;;;5001605;28;20209;-72
2023/06/21 06:39:14;;;;;;;11.10;7.77;;;22.30;99.90;;;;;;5007180;28;20360;-71
2023/06/21 06:41:39;;;;;;;8.73;7.70;;;22.30;99.90;;;;;;4987440;28;21077;-71
2023/06/21 06:44:05;;;;;;;10.33;8.20;;;22.00;99.90;;;;;;5004523;28;20300;-71
2023/06/21 06:46:31;;;;;;;9.07;7.27;;;21.80;99.90;;;;;;5002203;28;20221;-72
2023/06/21 06:48:57;;;;;;;8.77;7.33;;;21.70;99.90;;;;;;5020987;28;20378;-71
2023/06/21 06:51:23;;;;;;;9.40;7.63;;;21.70;99.90;;;;;;4986656;28;20229;-71
2023/06/21 06:53:49;;;;;;;8.70;7.80;;;21.60;99.90;;;;;;5006736;28;20563;-71
2023/06/21 06:56:15;;;;;;;11.27;9.03;;;21.50;99.90;;;;;;4989198;28;20468;-71
2023/06/21 06:58:40;;;;;;;10.73;8.50;;;21.30;99.90;;;;;;5006107;28;20245;-72
2023/06/21 07:01:06;;;;;;;8.37;7.50;;;21.40;99.90;;;;;;4996632;28;20218;-71
2023/06/21 07:03:32;;;;;;;11.73;8.80;;;21.60;99.90;;;;;;5005012;28;20671;-72
2023/06/21 07:05:58;;;;;;;15.47;8.30;;;21.50;99.90;;;;;;5002618;28;20249;-71
2023/06/21 07:08:24;;;;;;;12.30;8.07;;;21.40;99.90;;;;;;5007657;28;20508;-71
2023/06/21 07:10:49;;;;;;;11.13;9.80;;;21.50;99.90;;;;;;4985174;28;20241;-71
2023/06/21 07:13:16;;;;;;;9.97;8.00;;;21.50;99.90;;;;;;5003758;28;20221;-72
2023/06/21 07:15:42;;;;;;;13.43;8.40;;;21.40;99.90;;;;;;5002160;28;20229;-71
2023/06/21 07:18:07;;;;;;;13.03;10.20;;;21.60;99.90;;;;;;5006842;28;20518;-71
2023/06/21 07:20:34;;;;;;;9.40;8.40;;;21.60;99.90;;;;;;5000416;28;20217;-72
2023/06/21 07:23:00;;;;;;;14.40;9.27;;;21.50;99.90;;;;;;5005718;28;20287;-71
2023/06/21 07:25:26;;;;;;;12.40;8.60;;;21.60;99.90;;;;;;4998875;28;20457;-72
2023/06/21 07:27:52;;;;;;;9.20;8.30;;;21.60;99.90;;;;;;5000104;28;20467;-71
2023/06/21 07:30:20;;;;;;;9.03;8.03;;;21.70;99.90;;;;;;5003162;28;20464;-71
2023/06/21 07:32:47;;;;;;;10.70;9.13;;;21.70;99.90;;;;;;4994518;28;20237;-71
2023/06/21 07:35:14;;;;;;;11.67;8.37;;;21.80;99.90;;;;;;5001993;28;20812;-72
2023/06/21 07:37:41;;;;;;;9.90;8.70;;;21.90;99.90;;;;;;5002144;28;20468;-72
2023/06/21 07:40:08;;;;;;;10.63;8.90;;;21.90;99.90;;;;;;5004334;28;20993;-72
2023/06/21 07:42:34;;;;;;;9.10;8.20;;;21.90;99.90;;;;;;5005861;28;20479;-72
2023/06/21 07:44:59;;;;;;;13.20;8.20;;;22.10;99.90;;;;;;5004582;28;20480;-72
2023/06/21 07:47:25;;;;;;;13.70;9.23;;;22.10;99.90;;;;;;5001962;28;20279;-71
2023/06/21 07:49:51;;;;;;;10.57;8.33;;;22.30;99.90;;;;;;4977187;28;20247;-71
2023/06/21 07:52:17;;;;;;;11.00;8.93;;;22.50;99.90;;;;;;4980308;28;20229;-73
2023/06/21 07:54:47;;;;;;;12.63;8.73;;;22.50;99.90;;;;;;5002988;28;20225;-72
2023/06/21 07:57:14;;;;;;;11.43;8.33;;;22.60;99.90;;;;;;5004268;28;20599;-72
2023/06/21 07:59:39;;;;;;;13.57;9.13;;;22.70;99.90;;;;;;5003857;28;20523;-72
2023/06/21 08:02:05;;;;;;;11.33;8.53;;;22.70;99.90;;;;;;5002057;28;20469;-72
2023/06/21 08:04:31;;;;;;;10.60;8.07;;;22.80;99.90;;;;;;5001578;28;20217;-71
2023/06/21 08:06:56;;;;;;;12.67;8.87;;;22.80;99.90;;;;;;5007713;28;20213;-72
2023/06/21 08:09:22;;;;;;;10.83;9.70;;;22.80;99.90;;;;;;5002371;28;20232;-73
2023/06/21 08:11:48;;;;;;;9.70;8.70;;;22.80;99.90;;;;;;5002535;28;20702;-72
2023/06/21 08:14:13;;;;;;;9.03;8.13;;;22.90;99.90;;;;;;5000432;28;20221;-72
2023/06/21 08:16:39;;;;;;;8.30;7.40;;;22.90;99.90;;;;;;5006966;28;20683;-72
2023/06/21 08:19:05;;;;;;;9.13;7.60;;;23.00;99.90;;;;;;5004615;28;20229;-73
2023/06/21 08:21:30;;;;;;;9.43;7.47;;;23.10;99.90;;;;;;4982278;28;20252;-72
2023/06/21 08:23:56;;;;;;;8.87;7.50;;;23.10;99.90;;;;;;4985081;28;20217;-72
2023/06/21 08:26:22;;;;;;;12.77;8.90;;;23.20;99.90;;;;;;4990426;28;20296;-73
2023/06/21 08:28:48;;;;;;;8.60;7.60;;;23.30;99.90;;;;;;5000588;28;20224;-72
2023/06/21 08:31:14;;;;;;;8.73;7.90;;;23.40;99.90;;;;;;4985360;28;20841;-72
2023/06/21 08:33:39;;;;;;;8.40;7.60;;;23.50;99.90;;;;;;5000829;28;20240;-72
2023/06/21 08:36:08;;;;;;;8.67;7.80;;;23.60;99.90;;;;;;4985203;28;20260;-72
2023/06/21 08:38:34;;;;;;;8.20;7.40;;;23.80;99.90;;;;;;4998149;28;20234;-72
2023/06/21 08:41:03;;;;;;;8.17;7.47;;;23.90;99.90;;;;;;5006229;28;20494;-72
2023/06/21 08:43:29;;;;;;;7.17;6.57;;;24.00;99.90;;;;;;5001213;28;20449;-72
2023/06/21 08:45:56;;;;;;;8.20;7.37;;;24.10;99.90;;;;;;5002683;28;20456;-72
2023/06/21 08:48:22;;;;;;;9.37;8.33;;;24.20;99.90;;;;;;4999483;28;20470;-72
2023/06/21 08:50:50;;;;;;;7.13;6.43;;;24.30;99.90;;;;;;4986967;28;20483;-72
2023/06/21 08:53:39;;;;;;;8.63;6.97;;;24.40;99.90;;;;;;5003032;28;20461;-72
2023/06/21 08:56:06;;;;;;;7.53;6.83;;;24.50;99.90;;;;;;5001986;28;20470;-72
2023/06/21 08:58:41;;;;;;;7.77;7.07;;;24.60;99.90;;;;;;4997953;28;20468;-72
2023/06/21 09:01:10;;;;;;;7.53;6.83;;;24.70;99.90;;;;;;5002475;28;20996;-73
2023/06/21 09:03:53;;;;;;;6.70;6.00;;;24.90;99.90;;;;;;5001211;28;20495;-73
2023/06/21 09:06:22;;;;;;;5.83;5.30;;;25.00;99.90;;;;;;4994248;28;20469;-72
2023/06/21 09:08:49;;;;;;;6.10;5.60;;;25.10;99.90;;;;;;4996469;28;20519;-72
2023/06/21 09:11:17;;;;;;;10.13;6.30;;;25.30;99.90;;;;;;5004800;28;20530;-72
2023/06/21 09:13:44;;;;;;;5.77;5.33;;;25.40;99.90;;;;;;5006515;28;20460;-72
2023/06/21 09:16:11;;;;;;;6.10;5.60;;;25.50;99.90;;;;;;5001049;28;20459;-73
2023/06/21 09:18:39;;;;;;;6.20;5.60;;;25.70;99.90;;;;;;4986893;28;20457;-72
2023/06/21 09:21:06;;;;;;;7.17;6.13;;;25.80;99.90;;;;;;5002801;28;20452;-72
2023/06/21 09:23:32;;;;;;;6.60;6.00;;;26.00;99.90;;;;;;5004104;28;20914;-73
2023/06/21 09:25:58;;;;;;;8.63;5.90;;;26.00;99.90;;;;;;5001086;28;20555;-72
2023/06/21 09:28:24;;;;;;;6.70;6.00;;;26.00;99.90;;;;;;5006332;28;20217;-72
2023/06/21 09:30:50;;;;;;;6.60;6.00;;;26.30;99.90;;;;;;4998626;28;20225;-73
2023/06/21 09:33:16;;;;;;;5.80;5.20;;;26.50;99.90;;;;;;5000432;28;20446;-73
2023/06/21 09:35:43;;;;;;;5.87;5.33;;;26.50;99.90;;;;;;5004365;28;20236;-73
2023/06/21 09:38:26;;;;;;;6.50;5.27;;;26.60;99.90;;;;;;5004574;28;20495;-72
2023/06/21 09:40:52;;;;;;;5.60;5.10;;;26.60;99.90;;;;;;4987057;28;20460;-73
2023/06/21 09:43:21;;;;;;;5.03;4.57;;;26.70;99.90;;;;;;5003263;28;20480;-73
2023/06/21 09:46:04;;;;;;;6.13;5.43;;;26.90;99.90;;;;;;5001044;28;20465;-73
2023/06/21 09:48:36;;;;;;;5.97;4.63;;;27.00;99.90;;;;;;4999916;28;20220;-73
2023/06/21 09:51:18;;;;;;;5.63;4.40;;;27.00;99.90;;;;;;4973628;28;20473;-74
2023/06/21 09:53:47;;;;;;;5.70;5.03;;;27.10;99.90;;;;;;4992554;28;20877;-73
2023/06/21 09:56:22;;;;;;;5.20;4.80;;;27.00;99.90;;;;;;4993900;28;20461;-73
2023/06/21 09:58:50;;;;;;;5.30;4.50;;;27.20;99.90;;;;;;4996418;28;20256;-73
2023/06/21 10:01:16;;;;;;;4.90;4.50;;;27.20;99.90;;;;;;4995412;28;20221;-73
2023/06/21 10:03:44;;;;;;;7.33;6.17;;;27.30;99.90;;;;;;5002120;28;20221;-73
2023/06/21 10:06:16;;;;;;;6.70;6.05;;;27.50;99.90;;;;;;5010905;28;20222;-73
2023/06/21 10:08:43;;;;;;;6.13;5.43;;;27.80;99.90;;;;;;4988139;28;20727;-73
2023/06/21 10:11:09;;;;;;;6.40;5.80;;;27.90;99.90;;;;;;4997835;28;20360;-73
2023/06/21 10:13:37;;;;;;;9.23;6.18;;;27.90;99.90;;;;;;5008043;28;20277;-73
2023/06/21 10:16:03;;;;;;;7.40;6.70;;;27.90;99.90;;;;;;5002264;28;20225;-74
2023/06/21 10:18:30;;;;;;;6.55;5.95;;;27.80;99.90;;;;;;5002960;28;20220;-74
2023/06/21 10:21:04;;;;;;;6.78;6.07;;;27.80;99.90;;;;;;4993006;28;20299;-74
2023/06/21 10:23:34;;;;;;;6.45;5.82;;;27.80;99.90;;;;;;4997397;28;20259;-73
2023/06/21 10:26:02;;;;;;;6.20;5.60;;;27.90;99.90;;;;;;5003847;28;20288;-74
2023/06/21 10:28:29;;;;;;;6.57;5.93;;;28.00;99.90;;;;;;4998564;28;20703;-74
2023/06/21 10:30:58;;;;;;;7.57;5.45;;;27.90;99.90;;;;;;5002191;28;20241;-74
2023/06/21 10:33:29;;;;;;;5.57;5.07;;;28.00;99.90;;;;;;5002516;28;20301;-73
2023/06/21 10:35:59;;;;;;;5.70;5.20;;;28.10;99.90;;;;;;4989529;28;20376;-74
2023/06/21 10:38:30;;;;;;;7.28;6.68;;;28.20;99.90;;;;;;4999012;28;20363;-73
2023/06/21 10:40:57;;;;;;;6.90;6.28;;;28.20;99.40;;;;;;5000149;28;20234;-74
2023/06/21 10:43:23;;;;;;;6.32;5.72;;;28.20;99.40;;;;;;5001874;28;20276;-74
2023/06/21 10:45:50;;;;;;;6.00;5.45;;;28.30;99.20;;;;;;4998835;28;20703;-74
2023/06/21 10:48:17;;;;;;;5.57;5.07;;;28.50;98.80;;;;;;4990475;28;20304;-75
2023/06/21 10:50:43;;;;;;;5.65;5.15;;;28.60;98.40;;;;;;5001720;28;20294;-73
2023/06/21 10:53:10;;;;;;;6.38;5.88;;;28.60;97.60;;;;;;5004432;28;20304;-74
2023/06/21 10:55:39;;;;;;;5.72;5.22;;;28.60;97.70;;;;;;5003108;28;20226;-74
2023/06/21 10:58:05;;;;;;;5.93;5.43;;;28.60;97.70;;;;;;5002639;28;20225;-75
2023/06/21 11:00:31;;;;;;;5.63;4.70;;;28.50;97.70;;;;;;4987728;28;20220;-74
2023/06/21 11:02:57;;;;;;;7.05;5.60;;;28.60;97.70;;;;;;5001182;28;20294;-74
2023/06/21 11:05:26;;;;;;;6.47;5.88;;;28.60;97.60;;;;;;5000095;28;20244;-74
2023/06/21 11:07:57;;;;;;;6.65;5.43;;;28.70;98.00;;;;;;4982802;28;20225;-75
2023/06/21 11:10:47;;;;;;;6.32;5.80;;;29.00;97.40;;;;;;4999343;28;20695;-73
2023/06/21 11:13:13;;;;;;;5.97;5.43;;;29.10;97.10;;;;;;5004416;28;20225;-74
2023/06/21 11:15:41;;;;;;;5.72;5.22;;;29.10;96.80;;;;;;4988749;28;20217;-74
2023/06/21 11:18:10;;;;;;;6.03;5.43;;;29.20;96.80;;;;;;4999296;28;20228;-73
2023/06/21 11:20:56;;;;;;;6.55;5.55;;;29.20;96.80;;;;;;4999515;28;20229;-74
2023/06/21 11:23:23;;;;;;;5.75;5.25;;;29.30;96.80;;;;;;4984101;28;20225;-74
2023/06/21 11:25:53;;;;;;;5.70;5.20;;;29.30;96.60;;;;;;4988163;28;20735;-74
2023/06/21 11:28:19;;;;;;;7.18;6.47;;;29.30;97.20;;;;;;5008554;28;20221;-73
2023/06/21 11:31:07;;;;;;;6.80;6.07;;;29.30;96.70;;;;;;5002481;28;20232;-73
2023/06/21 11:34:00;;;;;;;8.70;6.82;;;29.40;96.60;;;;;;5001215;28;20218;-73
2023/06/21 11:36:26;;;;;;;5.50;5.00;;;29.50;96.60;;;;;;4990760;28;20340;-73
2023/06/21 11:39:12;;;;;;;6.90;6.30;;;29.60;96.50;;;;;;5012534;28;20245;-74
2023/06/21 11:41:45;;;;;;;6.47;5.88;;;29.80;96.60;;;;;;4993795;28;20226;-74
2023/06/21 11:44:11;;;;;;;6.43;5.82;;;29.80;96.10;;;;;;4984456;28;20648;-73
2023/06/21 11:46:39;;;;;;;6.22;5.68;;;29.90;96.30;;;;;;4984415;28;20284;-73
2023/06/21 11:49:04;;;;;;;6.60;6.00;;;30.00;96.20;;;;;;4999024;28;20317;-74
2023/06/21 11:51:31;;;;;;;5.88;5.13;;;30.40;95.90;;;;;;5003348;28;20790;-74
2023/06/21 11:53:57;;;;;;;6.00;5.50;;;30.20;95.80;;;;;;5000781;28;20217;-75
2023/06/21 11:56:32;;;;;;;6.00;5.30;;;30.30;95.60;;;;;;5006488;28;20213;-74
2023/06/21 11:58:59;;;;;;;6.20;5.70;;;30.60;95.70;;;;;;5003282;28;20288;-74
2023/06/21 12:01:25;;;;;;;11.57;5.82;;;30.60;95.40;;;;;;5001944;28;20210;-74
2023/06/21 12:03:58;;;;;;;6.72;6.13;;;30.60;95.20;;;;;;5003052;28;20220;-73
2023/06/21 12:06:24;;;;;;;6.03;5.38;;;30.80;94.50;;;;;;5005694;28;20754;-74
2023/06/21 12:08:56;;;;;;;6.13;5.63;;;30.40;95.20;;;;;;5006755;28;20244;-75
2023/06/21 12:11:25;;;;;;;5.80;5.30;;;30.30;94.80;;;;;;5004391;28;20221;-74
2023/06/21 12:13:51;;;;;;;6.60;6.00;;;30.20;94.40;;;;;;5002552;28;20297;-74
2023/06/21 12:16:16;;;;;;;6.40;5.45;;;29.60;94.10;;;;;;5000468;28;20779;-74
2023/06/21 12:18:42;;;;;;;5.70;5.05;;;30.00;94.50;;;;;;4986086;28;20228;-74
2023/06/21 12:21:08;;;;;;;6.32;5.82;;;30.50;94.70;;;;;;5003919;28;20225;-74
2023/06/21 12:23:34;;;;;;;6.18;5.57;;;30.80;93.90;;;;;;5001509;28;20233;-76
2023/06/21 12:26:02;;;;;;;7.13;6.45;;;31.30;93.90;;;;;;5002959;28;20240;-74
2023/06/21 12:28:30;;;;;;;6.13;5.53;;;31.30;93.80;;;;;;4984882;28;20249;-74
2023/06/21 12:30:57;;;;;;;5.97;5.47;;;31.30;93.60;;;;;;4996397;28;20298;-75
2023/06/21 12:33:39;;;;;;;6.60;6.00;;;31.20;93.80;;;;;;5001439;28;20215;-74
2023/06/21 12:36:23;;;;;;;5.97;5.47;;;31.40;93.50;;;;;;4977716;28;20221;-75
2023/06/21 12:38:55;;;;;;;5.72;5.20;;;31.20;93.60;;;;;;5002888;28;20224;-74
2023/06/21 12:41:24;;;;;;;6.07;5.57;;;31.40;93.30;;;;;;5002961;28;20228;-76
2023/06/21 12:43:53;;;;;;;6.57;6.00;;;31.60;92.90;;;;;;4999846;28;20300;-74
2023/06/21 12:46:20;;;;;;;5.82;5.32;;;31.80;93.30;;;;;;5008063;28;20221;-73
2023/06/21 12:48:54;;;;;;;6.78;6.18;;;31.60;92.60;;;;;;4994403;28;20217;-74